Time;durP1;ratioP1;P1;durP2;ratioP2;P2;SDS_P1;SDS_P2;PMS_P1;PMS_P2;Temp;Humidity;BMP_temperature;BMP_pressure;BME280_temperature;BME280_humidity;BME280_pressure;Samples;Min_cycle;Max_cycle;Signal;HPM_P1;HPM_P2
2022/11/19 00:02:02;;;;;;;16.63;11.73;;;-1.70;99.90;;;;;;4974658;28;20293;-73
2022/11/19 00:04:29;;;;;;;16.87;12.03;;;-1.70;99.90;;;;;;4974752;28;20312;-72
2022/11/19 00:06:57;;;;;;;14.87;11.13;;;-1.70;99.90;;;;;;4974003;28;20214;-72
2022/11/19 00:09:24;;;;;;;16.00;11.60;;;-1.80;99.90;;;;;;4973145;28;20688;-74
2022/11/19 00:14:36;;;;;;;17.00;11.07;;;-1.80;99.90;;;;;;4974271;28;20233;-74
2022/11/19 00:17:03;;;;;;;14.63;11.10;;;-1.80;99.90;;;;;;4974089;28;20750;-73
2022/11/19 00:19:30;;;;;;;16.50;12.10;;;-1.80;99.90;;;;;;4974089;28;20289;-72
2022/11/19 00:21:56;;;;;;;15.77;12.50;;;-1.80;99.90;;;;;;4973970;28;20272;-73
2022/11/19 00:24:26;;;;;;;16.80;11.83;;;-1.90;99.90;;;;;;4974174;28;20210;-72
2022/11/19 00:26:54;;;;;;;15.77;11.10;;;-1.90;99.90;;;;;;4972022;28;20669;-73
2022/11/19 00:29:21;;;;;;;17.40;12.33;;;-1.90;99.90;;;;;;4971131;28;20214;-71
2022/11/19 00:31:49;;;;;;;18.20;11.93;;;-2.00;99.90;;;;;;4970631;28;20309;-73
2022/11/19 00:34:16;;;;;;;17.30;12.13;;;-2.00;99.90;;;;;;4971235;28;20925;-73
2022/11/19 00:36:43;;;;;;;14.93;11.57;;;-2.00;99.90;;;;;;4970799;28;20774;-70
2022/11/19 00:39:10;;;;;;;15.20;12.30;;;-2.00;99.90;;;;;;4971287;28;20304;-70
2022/11/19 00:41:37;;;;;;;15.07;11.40;;;-2.00;99.90;;;;;;4971054;28;20233;-70
2022/11/19 00:44:03;;;;;;;15.20;12.10;;;-2.10;99.90;;;;;;4970876;28;20308;-70
2022/11/19 00:46:31;;;;;;;15.67;11.07;;;-2.10;99.90;;;;;;4971140;28;20297;-75
2022/11/19 00:49:00;;;;;;;14.53;11.13;;;-2.10;99.90;;;;;;4970866;28;20755;-73
2022/11/19 00:51:29;;;;;;;12.80;10.97;;;-2.10;99.90;;;;;;4971161;28;20296;-74
2022/11/19 00:53:57;;;;;;;17.13;12.67;;;-2.10;99.90;;;;;;4970621;28;20296;-74
2022/11/19 00:56:25;;;;;;;17.20;12.60;;;-2.10;99.90;;;;;;4971097;28;20304;-74
2022/11/19 00:58:52;;;;;;;19.30;12.67;;;-2.10;99.90;;;;;;4970575;28;20680;-74
2022/11/19 01:01:22;;;;;;;21.57;14.77;;;-2.00;99.90;;;;;;4970909;28;20687;-74
2022/11/19 01:03:49;;;;;;;26.27;15.37;;;-2.10;99.90;;;;;;4970666;28;20280;-73
2022/11/19 01:06:20;;;;;;;25.47;15.93;;;-2.10;99.90;;;;;;4970616;28;20274;-73
2022/11/19 01:08:48;;;;;;;25.90;15.17;;;-2.20;99.90;;;;;;4970198;28;20678;-73
2022/11/19 01:11:17;;;;;;;21.27;14.53;;;-2.20;99.90;;;;;;4971036;28;20300;-73
2022/11/19 01:13:45;;;;;;;18.37;13.43;;;-2.20;99.90;;;;;;4970809;28;20728;-73
2022/11/19 01:16:14;;;;;;;19.07;13.87;;;-2.20;99.90;;;;;;4970618;28;20329;-73
2022/11/19 01:18:42;;;;;;;18.33;13.57;;;-2.20;99.90;;;;;;4970693;28;20286;-73
2022/11/19 01:21:11;;;;;;;17.07;12.93;;;-2.20;99.90;;;;;;4970441;28;20246;-75
2022/11/19 01:23:40;;;;;;;19.40;13.57;;;-2.30;99.90;;;;;;4970808;28;20288;-77
2022/11/19 01:26:08;;;;;;;17.97;12.73;;;-2.30;99.90;;;;;;4970943;28;20219;-73
2022/11/19 01:28:36;;;;;;;19.53;12.80;;;-2.30;99.90;;;;;;4970422;28;20752;-72
2022/11/19 01:31:07;;;;;;;16.73;12.33;;;-2.30;99.90;;;;;;4970294;28;20329;-73
2022/11/19 01:33:34;;;;;;;17.97;12.63;;;-2.30;99.90;;;;;;4970626;28;20214;-75
2022/11/19 01:36:03;;;;;;;17.43;11.93;;;-2.20;99.90;;;;;;4969931;28;20903;-75
2022/11/19 01:38:31;;;;;;;16.27;11.20;;;-2.20;99.90;;;;;;4968526;28;20214;-77
2022/11/19 01:40:59;;;;;;;14.80;10.70;;;-2.20;99.90;;;;;;4969077;28;20309;-78
2022/11/19 01:43:42;;;;;;;14.37;11.20;;;-2.30;99.90;;;;;;4970059;28;20740;-77
2022/11/19 01:46:09;;;;;;;14.43;10.20;;;-2.40;99.90;;;;;;4969899;28;20750;-77
2022/11/19 01:48:39;;;;;;;15.20;10.60;;;-2.40;99.90;;;;;;4969919;28;20304;-75
2022/11/19 01:51:10;;;;;;;16.87;10.43;;;-2.40;99.90;;;;;;4969151;28;20214;-75
2022/11/19 01:53:38;;;;;;;14.90;11.20;;;-2.40;99.90;;;;;;4970098;28;20204;-78
2022/11/19 01:56:08;;;;;;;14.93;10.43;;;-2.40;99.90;;;;;;4969700;28;20276;-76
2022/11/19 01:58:40;;;;;;;14.87;10.93;;;-2.40;99.90;;;;;;4969862;28;20225;-75
2022/11/19 02:01:08;;;;;;;13.20;10.50;;;-2.40;99.90;;;;;;4969850;28;20230;-76
2022/11/19 02:03:36;;;;;;;15.90;11.43;;;-2.40;99.90;;;;;;4969850;28;20237;-78
2022/11/19 02:06:03;;;;;;;16.00;11.03;;;-2.40;99.90;;;;;;4969324;28;20682;-74
2022/11/19 02:08:41;;;;;;;16.67;11.07;;;-2.50;99.90;;;;;;4969371;28;20309;-77
2022/11/19 02:11:36;;;;;;;12.10;10.20;;;-2.50;99.90;;;;;;4969648;28;20245;-77
2022/11/19 02:14:16;;;;;;;13.77;9.90;;;-2.50;99.90;;;;;;4956507;28;20324;-76
2022/11/19 02:16:52;;;;;;;13.20;10.43;;;-2.50;99.90;;;;;;4969040;28;20227;-73
2022/11/19 02:19:44;;;;;;;15.53;10.97;;;-2.50;99.90;;;;;;4950210;29;20233;-73
2022/11/19 02:22:22;;;;;;;15.03;10.70;;;-2.50;99.90;;;;;;4966845;28;20300;-74
2022/11/19 02:24:52;;;;;;;15.20;10.23;;;-2.50;99.90;;;;;;4969546;28;20224;-73
2022/11/19 02:27:51;;;;;;;17.53;11.47;;;-2.50;99.90;;;;;;4969661;28;20305;-72
2022/11/19 02:30:20;;;;;;;21.07;12.57;;;-2.50;99.90;;;;;;4969393;28;20201;-73
2022/11/19 02:32:57;;;;;;;19.07;11.57;;;-2.60;99.90;;;;;;4968930;28;20578;-73
2022/11/19 02:35:34;;;;;;;20.07;11.67;;;-2.60;99.90;;;;;;4969406;28;20610;-73
2022/11/19 02:38:08;;;;;;;19.10;12.10;;;-2.60;99.90;;;;;;4968968;28;20390;-73
2022/11/19 02:40:38;;;;;;;13.27;9.90;;;-2.60;99.90;;;;;;4968956;28;20236;-73
2022/11/19 02:43:13;;;;;;;14.00;10.67;;;-2.60;99.90;;;;;;4968589;28;20301;-72
2022/11/19 02:45:44;;;;;;;13.83;9.50;;;-2.70;99.90;;;;;;4968907;28;20194;-73
2022/11/19 02:48:16;;;;;;;17.53;10.10;;;-2.70;99.90;;;;;;4968955;28;20205;-72
2022/11/19 02:50:46;;;;;;;14.70;10.23;;;-2.70;99.90;;;;;;4968844;28;20287;-72
2022/11/19 02:53:13;;;;;;;12.00;8.87;;;-2.80;99.90;;;;;;4968850;28;20208;-72
2022/11/19 02:55:40;;;;;;;13.23;9.20;;;-2.80;99.90;;;;;;4968858;28;20787;-73
2022/11/19 03:04:28;;;;;;;12.87;8.77;;;-2.80;99.90;;;;;;4968657;28;20296;-73
2022/11/19 03:06:31;;;;;;;11.17;8.30;;;-2.80;99.90;;;;;;4968733;28;20260;-73
2022/11/19 03:08:59;;;;;;;11.20;8.20;;;-2.80;99.90;;;;;;4968686;28;20663;-72
2022/11/19 03:11:28;;;;;;;12.13;8.73;;;-2.80;99.90;;;;;;4968995;28;20354;-73
2022/11/19 03:16:52;;;;;;;11.17;8.23;;;-2.80;99.90;;;;;;4968164;28;20714;-77
2022/11/19 03:19:29;;;;;;;9.33;7.63;;;-2.90;99.90;;;;;;4968615;28;20734;-74
2022/11/19 03:22:00;;;;;;;8.93;8.03;;;-2.90;99.90;;;;;;4968567;28;20212;-78
2022/11/19 03:24:32;;;;;;;10.70;8.30;;;-2.90;99.90;;;;;;4969047;28;20229;-75
2022/11/19 03:27:05;;;;;;;10.13;8.97;;;-2.90;99.90;;;;;;4968830;28;20208;-74
2022/11/19 03:29:36;;;;;;;8.33;7.43;;;-2.90;99.90;;;;;;4949565;28;20255;-75
2022/11/19 03:32:08;;;;;;;10.43;7.87;;;-2.90;99.90;;;;;;4949543;28;20288;-76
2022/11/19 03:34:38;;;;;;;9.33;7.70;;;-2.90;99.90;;;;;;4949781;28;20645;-75
2022/11/19 03:37:07;;;;;;;8.63;7.17;;;-2.90;99.90;;;;;;4968565;28;20263;-77
2022/11/19 03:39:36;;;;;;;8.17;7.30;;;-2.90;99.90;;;;;;4968095;28;20290;-77
2022/11/19 03:42:06;;;;;;;7.60;6.83;;;-2.90;99.90;;;;;;4968384;28;20754;-74
2022/11/19 03:44:38;;;;;;;8.60;7.53;;;-3.00;99.90;;;;;;4949086;29;20293;-74
2022/11/19 03:47:11;;;;;;;8.03;7.23;;;-3.00;99.90;;;;;;4948992;28;20232;-75
2022/11/19 03:49:42;;;;;;;7.13;6.43;;;-3.00;99.90;;;;;;4949469;28;20207;-76
2022/11/19 03:52:12;;;;;;;8.10;7.30;;;-3.00;99.90;;;;;;4958034;28;20285;-77
2022/11/19 03:54:40;;;;;;;8.47;7.20;;;-3.00;99.90;;;;;;4968460;28;20287;-76
2022/11/19 03:57:09;;;;;;;7.30;6.67;;;-3.00;99.90;;;;;;4968242;28;20321;-71
2022/11/19 03:59:36;;;;;;;7.63;6.83;;;-3.00;99.90;;;;;;4967614;28;20576;-73
2022/11/19 04:02:06;;;;;;;7.63;6.83;;;-3.10;99.90;;;;;;4968402;28;20213;-72
2022/11/19 04:04:37;;;;;;;8.10;7.30;;;-3.10;99.90;;;;;;4971782;28;20276;-73
2022/11/19 04:07:09;;;;;;;7.80;6.67;;;-3.00;99.90;;;;;;4971826;28;20565;-73
2022/11/19 04:09:37;;;;;;;7.97;6.27;;;-3.00;99.90;;;;;;4971779;28;20799;-72
2022/11/19 04:12:04;;;;;;;7.80;6.43;;;-3.00;99.90;;;;;;4971568;28;20635;-73
2022/11/19 04:14:31;;;;;;;7.87;6.93;;;-3.00;99.90;;;;;;4971582;28;20584;-71
2022/11/19 04:16:58;;;;;;;8.60;6.40;;;-3.00;99.90;;;;;;4971404;28;20340;-72
2022/11/19 04:19:25;;;;;;;6.80;6.10;;;-3.10;99.90;;;;;;4971549;28;20711;-73
2022/11/19 04:21:53;;;;;;;7.13;6.07;;;-3.20;99.90;;;;;;4971175;28;20297;-71
2022/11/19 04:24:21;;;;;;;6.43;5.70;;;-3.20;99.90;;;;;;4952767;28;20257;-73
2022/11/19 04:26:48;;;;;;;6.97;6.13;;;-3.10;99.90;;;;;;4951850;28;20831;-73
2022/11/19 04:29:14;;;;;;;6.70;5.47;;;-3.10;99.90;;;;;;4967436;28;20303;-74
2022/11/19 04:31:41;;;;;;;6.97;6.27;;;-3.10;99.90;;;;;;4971258;28;20682;-73
2022/11/19 04:34:08;;;;;;;6.07;5.50;;;-3.10;99.90;;;;;;4971604;28;20296;-73
2022/11/19 04:36:35;;;;;;;5.70;5.20;;;-3.20;99.90;;;;;;4971190;28;20328;-73
2022/11/19 04:39:04;;;;;;;5.90;5.30;;;-3.20;99.90;;;;;;4971254;28;20256;-73
2022/11/19 04:41:30;;;;;;;6.47;5.47;;;-3.10;99.90;;;;;;4971406;28;20265;-73
2022/11/19 04:43:57;;;;;;;5.83;5.33;;;-3.10;99.90;;;;;;4971185;28;20759;-77
2022/11/19 04:46:24;;;;;;;7.57;5.53;;;-3.20;99.90;;;;;;4971207;28;20422;-77
2022/11/19 04:48:51;;;;;;;8.43;6.33;;;-3.20;99.90;;;;;;4971276;28;20309;-79
2022/11/19 04:51:18;;;;;;;5.90;5.40;;;-3.10;99.90;;;;;;4971423;28;20253;-76
2022/11/19 04:53:45;;;;;;;5.53;5.03;;;-3.10;99.90;;;;;;4970920;28;20225;-75
2022/11/19 04:56:13;;;;;;;5.33;4.93;;;-3.10;99.90;;;;;;4970898;28;20990;-75
2022/11/19 04:58:40;;;;;;;5.47;4.97;;;-3.10;99.90;;;;;;4971358;28;20667;-76
2022/11/19 05:01:07;;;;;;;5.60;5.10;;;-3.10;99.90;;;;;;4970991;28;20302;-76
2022/11/19 05:03:34;;;;;;;5.73;5.10;;;-3.00;99.90;;;;;;4971224;28;20616;-76
2022/11/19 05:06:01;;;;;;;5.90;5.33;;;-3.10;99.90;;;;;;4955572;28;20233;-75
2022/11/19 05:08:28;;;;;;;5.57;5.07;;;-3.10;99.90;;;;;;4962997;28;20735;-73
2022/11/19 05:10:55;;;;;;;5.37;4.87;;;-3.10;99.90;;;;;;4971014;28;20300;-78
2022/11/19 05:13:23;;;;;;;5.33;4.90;;;-3.10;99.90;;;;;;4970952;28;20672;-78
2022/11/19 05:15:50;;;;;;;6.00;5.40;;;-3.10;99.90;;;;;;4970653;28;20253;-79
2022/11/19 05:18:17;;;;;;;5.50;4.93;;;-3.20;99.90;;;;;;4970887;28;20212;-72
2022/11/19 05:20:44;;;;;;;5.63;5.13;;;-3.20;99.90;;;;;;4971008;28;20219;-73
2022/11/19 05:23:11;;;;;;;6.03;4.47;;;-3.20;99.90;;;;;;4970899;28;20243;-74
2022/11/19 05:25:38;;;;;;;5.20;4.70;;;-3.20;99.90;;;;;;4971027;28;20216;-75
2022/11/19 05:28:05;;;;;;;5.00;4.60;;;-3.10;99.90;;;;;;4970414;28;20210;-75
2022/11/19 05:30:33;;;;;;;5.13;4.63;;;-3.20;99.90;;;;;;4970362;28;20757;-73
2022/11/19 05:33:00;;;;;;;5.43;4.87;;;-3.10;99.90;;;;;;4970564;28;20301;-76
2022/11/19 05:35:27;;;;;;;5.43;4.93;;;-3.20;99.90;;;;;;4970747;28;20256;-74
2022/11/19 05:37:54;;;;;;;5.43;4.93;;;-3.10;99.90;;;;;;4970114;28;20249;-76
2022/11/19 05:40:21;;;;;;;5.17;4.67;;;-3.20;99.90;;;;;;4970165;28;20248;-73
2022/11/19 05:42:48;;;;;;;4.73;4.33;;;-3.20;99.90;;;;;;4970085;28;20749;-77
2022/11/19 05:45:15;;;;;;;5.33;4.83;;;-3.10;99.90;;;;;;4970390;28;20639;-77
2022/11/19 05:47:43;;;;;;;4.90;4.50;;;-3.10;99.90;;;;;;4970380;28;20306;-72
2022/11/19 05:50:10;;;;;;;5.33;4.70;;;-3.20;99.90;;;;;;4970325;28;20309;-72
2022/11/19 05:52:37;;;;;;;4.53;4.13;;;-3.20;99.90;;;;;;4969742;28;20236;-72
2022/11/19 05:55:04;;;;;;;5.17;4.73;;;-3.20;99.90;;;;;;4969604;28;20696;-73
2022/11/19 05:57:31;;;;;;;4.67;4.20;;;-3.20;99.90;;;;;;4969813;28;20756;-72
2022/11/19 05:59:58;;;;;;;5.57;5.00;;;-3.20;99.90;;;;;;4969742;28;20292;-72
2022/11/19 06:02:25;;;;;;;4.50;4.20;;;-3.20;99.90;;;;;;4969630;28;20219;-71
2022/11/19 06:04:54;;;;;;;5.10;4.60;;;-3.20;99.90;;;;;;4969447;28;20889;-72
2022/11/19 06:07:21;;;;;;;5.27;4.77;;;-3.20;99.90;;;;;;4969650;28;20220;-73
2022/11/19 06:09:48;;;;;;;5.20;4.30;;;-3.20;99.90;;;;;;4969663;28;20285;-73
2022/11/19 06:12:14;;;;;;;5.17;4.77;;;-3.10;99.90;;;;;;4969694;28;20216;-74
2022/11/19 06:14:41;;;;;;;5.13;4.63;;;-3.10;99.90;;;;;;4969691;28;20298;-73
2022/11/19 06:17:08;;;;;;;4.77;4.37;;;-3.20;99.90;;;;;;4969612;28;20237;-72
2022/11/19 06:19:35;;;;;;;5.13;4.70;;;-3.10;99.90;;;;;;4969803;28;20300;-73
2022/11/19 06:22:04;;;;;;;4.63;4.23;;;-3.10;99.90;;;;;;4969411;28;20232;-74
2022/11/19 06:24:31;;;;;;;4.63;4.23;;;-3.10;99.90;;;;;;4969050;28;20209;-73
2022/11/19 06:26:58;;;;;;;4.90;4.50;;;-3.10;99.90;;;;;;4968975;28;20309;-73
2022/11/19 06:29:25;;;;;;;5.13;4.63;;;-3.10;99.90;;;;;;4969406;28;20295;-73
2022/11/19 06:31:52;;;;;;;5.00;4.50;;;-3.10;99.90;;;;;;4968992;28;20224;-73
2022/11/19 06:34:18;;;;;;;4.73;4.33;;;-3.10;99.90;;;;;;4969629;28;20296;-74
2022/11/19 06:36:45;;;;;;;4.27;3.93;;;-3.10;99.90;;;;;;4969015;28;20234;-74
2022/11/19 06:39:13;;;;;;;4.23;3.83;;;-3.10;99.90;;;;;;4969379;28;20216;-72
2022/11/19 06:41:40;;;;;;;4.60;4.20;;;-3.20;99.90;;;;;;4969090;28;20233;-71
2022/11/19 06:44:07;;;;;;;4.43;4.03;;;-3.30;99.90;;;;;;4968999;28;20340;-71
2022/11/19 06:46:34;;;;;;;4.03;3.73;;;-3.30;99.90;;;;;;4968774;28;20223;-75
2022/11/19 06:49:02;;;;;;;6.83;4.83;;;-3.20;99.90;;;;;;4969216;28;20656;-73
2022/11/19 06:51:29;;;;;;;4.37;3.97;;;-3.20;99.90;;;;;;4969255;28;20207;-78
2022/11/19 06:53:56;;;;;;;5.53;4.67;;;-3.20;99.90;;;;;;4968889;28;20586;-75
2022/11/19 06:56:24;;;;;;;6.70;4.77;;;-3.10;99.90;;;;;;4969074;28;20333;-72
2022/11/19 06:58:51;;;;;;;4.90;4.43;;;-3.00;99.90;;;;;;4968522;28;20725;-73
2022/11/19 07:01:18;;;;;;;4.97;4.47;;;-3.00;99.90;;;;;;4968516;28;20302;-73
2022/11/19 07:03:45;;;;;;;5.00;4.60;;;-2.90;99.90;;;;;;4968782;28;20307;-74
2022/11/19 07:06:12;;;;;;;5.00;4.47;;;-2.90;99.90;;;;;;4967774;28;20328;-73
2022/11/19 07:08:38;;;;;;;5.20;4.70;;;-2.90;99.90;;;;;;4967007;28;20306;-73
2022/11/19 07:13:57;;;;;;;4.40;4.00;;;-2.90;99.90;;;;;;4966476;28;20210;-74
2022/11/19 07:16:24;;;;;;;4.60;4.13;;;-3.00;99.90;;;;;;4966029;28;21019;-74
2022/11/19 07:18:51;;;;;;;4.70;4.30;;;-3.00;99.90;;;;;;4947509;29;20292;-75
2022/11/19 07:21:18;;;;;;;4.93;4.50;;;-3.00;99.90;;;;;;4947664;29;20215;-76
2022/11/19 07:23:45;;;;;;;4.47;4.10;;;-3.00;99.90;;;;;;4959612;28;20306;-73
2022/11/19 07:26:12;;;;;;;5.10;4.33;;;-3.00;99.90;;;;;;4966598;28;20221;-71
2022/11/19 07:28:39;;;;;;;4.47;3.87;;;-3.00;99.90;;;;;;4966511;28;20402;-70
2022/11/19 07:31:08;;;;;;;4.93;4.20;;;-3.00;99.90;;;;;;4966507;28;20595;-72
2022/11/19 07:33:38;;;;;;;4.50;4.10;;;-3.00;99.90;;;;;;4967298;28;20301;-73
2022/11/19 07:36:05;;;;;;;4.13;3.73;;;-2.90;99.90;;;;;;4967203;28;20210;-72
2022/11/19 07:38:32;;;;;;;4.10;3.80;;;-2.90;99.90;;;;;;4970426;28;20221;-72
2022/11/19 07:40:59;;;;;;;4.37;3.93;;;-2.80;99.90;;;;;;4969907;28;20743;-73
2022/11/19 07:43:25;;;;;;;4.20;3.90;;;-2.80;99.90;;;;;;4970612;28;20308;-71
2022/11/19 07:45:52;;;;;;;5.10;3.73;;;-2.80;99.90;;;;;;4972053;28;20303;-72
2022/11/19 07:48:20;;;;;;;6.00;5.40;;;-2.70;99.90;;;;;;4971758;28;20308;-72
2022/11/19 07:50:51;;;;;;;4.90;4.40;;;-2.70;99.90;;;;;;4971240;28;20926;-71
2022/11/19 07:53:19;;;;;;;6.60;4.70;;;-2.60;99.90;;;;;;4971701;28;20209;-71
2022/11/19 07:55:46;;;;;;;4.77;4.20;;;-2.50;99.90;;;;;;4971990;28;20302;-71
2022/11/19 07:58:14;;;;;;;4.07;3.77;;;-2.50;99.90;;;;;;4971138;28;20236;-72
2022/11/19 08:00:41;;;;;;;6.97;4.47;;;-2.50;99.90;;;;;;4971668;28;20228;-72
2022/11/19 08:03:10;;;;;;;4.60;4.20;;;-2.40;99.90;;;;;;4972073;28;20309;-72
2022/11/19 08:05:40;;;;;;;4.80;4.40;;;-2.40;99.90;;;;;;4971139;28;20276;-71
2022/11/19 08:08:07;;;;;;;4.57;4.17;;;-2.30;99.90;;;;;;4971888;28;20233;-72
2022/11/19 08:10:35;;;;;;;4.57;4.10;;;-2.20;99.90;;;;;;4985584;28;20304;-71
2022/11/19 08:13:04;;;;;;;4.17;3.77;;;-2.20;99.90;;;;;;4990913;28;20215;-72
2022/11/19 08:15:32;;;;;;;5.03;3.73;;;-2.10;99.90;;;;;;4976794;28;20600;-71
2022/11/19 08:18:14;;;;;;;7.20;4.47;;;-2.10;99.90;;;;;;4970920;28;20747;-71
2022/11/19 08:20:47;;;;;;;4.87;4.47;;;-2.10;99.90;;;;;;4971334;28;20232;-71
2022/11/19 08:23:17;;;;;;;4.87;4.13;;;-2.00;99.90;;;;;;4971653;28;20206;-71
2022/11/19 08:25:44;;;;;;;5.10;4.40;;;-2.00;99.90;;;;;;4971201;28;20665;-71
2022/11/19 08:28:11;;;;;;;4.20;3.90;;;-2.00;99.90;;;;;;4970851;28;20204;-72
2022/11/19 08:30:40;;;;;;;4.43;4.13;;;-1.90;99.90;;;;;;4971085;28;20213;-72
2022/11/19 08:33:07;;;;;;;4.27;3.97;;;-2.00;99.90;;;;;;4970985;28;20300;-72
2022/11/19 08:35:35;;;;;;;4.10;3.70;;;-2.00;99.90;;;;;;4971271;28;20532;-71
2022/11/19 08:38:03;;;;;;;4.60;4.00;;;-2.10;99.90;;;;;;4970871;28;20292;-72
2022/11/19 08:40:30;;;;;;;4.63;4.23;;;-2.10;99.90;;;;;;4971270;28;20214;-72
2022/11/19 08:42:58;;;;;;;4.57;4.17;;;-2.20;99.90;;;;;;4970924;28;20235;-72
2022/11/19 08:45:26;;;;;;;5.17;4.37;;;-2.20;99.90;;;;;;4970803;28;20209;-72
2022/11/19 08:47:53;;;;;;;5.63;4.83;;;-2.10;99.90;;;;;;4969676;28;20214;-71
2022/11/19 08:50:20;;;;;;;4.57;4.17;;;-2.10;99.90;;;;;;4971201;28;20321;-71
2022/11/19 08:52:54;;;;;;;5.40;4.80;;;-2.00;99.90;;;;;;4970721;28;20257;-71
2022/11/19 08:55:26;;;;;;;4.73;4.27;;;-2.00;99.90;;;;;;4973511;28;20271;-71
2022/11/19 08:57:59;;;;;;;4.40;4.00;;;-1.90;99.90;;;;;;4970286;28;20282;-71
2022/11/19 09:00:26;;;;;;;4.60;4.20;;;-1.90;99.90;;;;;;4970570;28;20198;-72
2022/11/19 09:02:53;;;;;;;4.60;4.00;;;-1.70;99.90;;;;;;4970687;28;20212;-71
2022/11/19 09:05:20;;;;;;;3.70;3.33;;;-1.60;99.90;;;;;;4951293;29;20278;-71
2022/11/19 09:07:47;;;;;;;5.37;4.87;;;-1.60;99.90;;;;;;4957131;28;20253;-71
2022/11/19 09:10:14;;;;;;;4.93;4.50;;;-1.60;99.90;;;;;;4970913;28;20300;-72
2022/11/19 09:12:42;;;;;;;4.13;3.77;;;-1.50;99.90;;;;;;4971100;28;20826;-72
2022/11/19 09:15:10;;;;;;;4.47;4.07;;;-1.50;99.90;;;;;;4969864;28;20241;-71
2022/11/19 09:17:37;;;;;;;4.50;4.10;;;-1.40;99.90;;;;;;4969895;28;20242;-71
2022/11/19 09:20:05;;;;;;;4.37;3.70;;;-1.40;99.90;;;;;;4970497;28;20293;-72
2022/11/19 09:22:32;;;;;;;4.20;3.80;;;-1.30;99.90;;;;;;4970724;28;20293;-71
2022/11/19 09:24:59;;;;;;;5.00;4.03;;;-1.30;99.90;;;;;;4970082;28;20301;-71
2022/11/19 09:27:26;;;;;;;5.00;4.30;;;-1.30;99.90;;;;;;4970151;28;20302;-72
2022/11/19 09:29:54;;;;;;;4.53;3.73;;;-1.20;99.90;;;;;;4969524;28;20696;-71
2022/11/19 09:32:21;;;;;;;3.60;3.27;;;-1.20;99.90;;;;;;4970141;28;20651;-71
2022/11/19 09:34:48;;;;;;;8.53;7.40;;;-1.20;99.90;;;;;;4970176;28;20241;-71
2022/11/19 09:37:15;;;;;;;16.30;12.37;;;-1.10;99.90;;;;;;4969877;28;20711;-71
2022/11/19 09:39:42;;;;;;;35.93;19.90;;;-1.10;99.90;;;;;;4970302;28;20246;-71
2022/11/19 09:42:16;;;;;;;7.10;6.03;;;-1.00;99.90;;;;;;4964491;28;20303;-71
2022/11/19 09:45:16;;;;;;;15.23;10.50;;;-1.00;99.90;;;;;;4968743;28;20198;-72
2022/11/19 09:48:02;;;;;;;6.13;5.53;;;-1.00;99.90;;;;;;4969940;28;20858;-72
2022/11/19 09:50:31;;;;;;;5.80;4.83;;;-0.90;99.90;;;;;;4969960;28;20206;-71
2022/11/19 09:53:02;;;;;;;9.43;6.93;;;-0.90;99.90;;;;;;4969494;28;20314;-71
2022/11/19 09:55:32;;;;;;;9.40;7.17;;;-0.90;99.90;;;;;;4970015;28;20210;-71
2022/11/19 09:58:00;;;;;;;4.77;4.37;;;-0.80;99.90;;;;;;4969301;28;20775;-71
2022/11/19 10:00:30;;;;;;;7.80;6.37;;;-0.80;99.90;;;;;;4969530;28;20301;-72
2022/11/19 10:03:00;;;;;;;5.47;4.97;;;-0.70;99.90;;;;;;4969546;28;20203;-71
2022/11/19 10:05:41;;;;;;;5.57;4.77;;;-0.60;99.90;;;;;;4969041;28;20321;-72
2022/11/19 10:08:19;;;;;;;3.77;3.47;;;-0.50;99.90;;;;;;4969287;28;20669;-71
2022/11/19 10:10:52;;;;;;;5.37;4.60;;;-0.50;99.90;;;;;;4969365;28;20208;-71
2022/11/19 10:13:38;;;;;;;3.90;3.60;;;-0.40;99.90;;;;;;4969179;28;20313;-71
2022/11/19 10:16:23;;;;;;;3.20;2.90;;;-0.40;99.90;;;;;;4969088;28;20761;-72
2022/11/19 10:19:01;;;;;;;3.93;2.93;;;-0.40;99.90;;;;;;4969137;28;20312;-72
2022/11/19 10:21:33;;;;;;;3.73;3.43;;;-0.40;99.90;;;;;;4969373;28;20221;-71
2022/11/19 10:24:08;;;;;;;3.63;3.33;;;-0.30;99.90;;;;;;4969133;28;20298;-71
2022/11/19 10:26:36;;;;;;;3.40;3.10;;;-0.30;99.90;;;;;;4969232;28;20198;-72
2022/11/19 10:29:12;;;;;;;3.03;2.80;;;-0.20;99.90;;;;;;4968852;28;20221;-71
2022/11/19 10:31:45;;;;;;;2.80;2.60;;;-0.20;99.90;;;;;;4969053;28;20230;-71
2022/11/19 10:34:21;;;;;;;3.20;3.00;;;-0.10;99.90;;;;;;4969144;28;20677;-71
2022/11/19 10:36:56;;;;;;;3.07;2.87;;;0.00;99.90;;;;;;4968355;28;20207;-71
2022/11/19 10:39:28;;;;;;;3.30;3.00;;;0.10;99.90;;;;;;4969200;28;20206;-71
2022/11/19 10:41:58;;;;;;;3.37;3.07;;;0.20;99.90;;;;;;4968882;28;20198;-71
2022/11/19 10:44:38;;;;;;;3.17;2.97;;;0.30;99.90;;;;;;4968941;28;20203;-71
2022/11/19 10:47:10;;;;;;;3.30;3.00;;;0.40;99.90;;;;;;4969086;28;20291;-71
2022/11/19 10:49:40;;;;;;;3.77;3.43;;;0.40;99.90;;;;;;4969008;28;20230;-71
2022/11/19 10:52:17;;;;;;;3.13;2.93;;;0.40;99.90;;;;;;4968581;28;20199;-71
2022/11/19 10:54:46;;;;;;;3.50;3.20;;;0.40;99.90;;;;;;4968362;28;20572;-72
2022/11/19 10:57:17;;;;;;;3.63;3.33;;;0.40;99.90;;;;;;4968888;28;20332;-72
2022/11/19 10:59:45;;;;;;;4.23;2.90;;;0.40;99.90;;;;;;4967908;28;20237;-71
2022/11/19 11:02:23;;;;;;;3.00;2.80;;;0.40;99.90;;;;;;4968908;28;20234;-71
2022/11/19 11:05:09;;;;;;;3.50;3.20;;;0.40;99.90;;;;;;4968034;28;20267;-73
2022/11/19 11:07:53;;;;;;;3.00;2.80;;;0.50;99.90;;;;;;4968380;28;20230;-72
2022/11/19 11:10:41;;;;;;;3.50;3.20;;;0.60;99.90;;;;;;4968680;28;20226;-71
2022/11/19 11:16:08;;;;;;;3.00;2.80;;;0.70;99.90;;;;;;4968190;28;20318;-72
2022/11/19 11:18:39;;;;;;;3.13;2.93;;;0.80;99.90;;;;;;4968500;28;20768;-71
2022/11/19 11:21:10;;;;;;;3.77;3.47;;;1.10;99.90;;;;;;4968815;28;20199;-72
2022/11/19 11:23:49;;;;;;;3.07;2.87;;;1.20;99.90;;;;;;4968574;28;20286;-72
2022/11/19 11:26:22;;;;;;;3.43;3.13;;;1.20;99.90;;;;;;4968845;28;20226;-72
2022/11/19 11:28:57;;;;;;;3.87;3.57;;;1.30;99.90;;;;;;4968383;28;20211;-71
2022/11/19 11:31:31;;;;;;;3.90;3.57;;;1.30;99.90;;;;;;4968146;28;20249;-71
2022/11/19 11:34:01;;;;;;;3.57;3.27;;;1.50;99.90;;;;;;4968404;28;20289;-71
2022/11/19 11:36:30;;;;;;;3.73;3.43;;;1.60;99.90;;;;;;4968649;28;20265;-72
2022/11/19 11:38:59;;;;;;;4.10;3.70;;;1.80;99.90;;;;;;4968576;28;20321;-71
2022/11/19 11:41:34;;;;;;;3.40;3.20;;;1.80;99.90;;;;;;4967978;28;20241;-72
2022/11/19 11:44:04;;;;;;;3.30;3.03;;;1.90;99.90;;;;;;4967875;28;20708;-72
2022/11/19 11:46:41;;;;;;;3.70;3.40;;;1.80;99.90;;;;;;4968303;28;20207;-71
2022/11/19 11:49:37;;;;;;;3.20;3.00;;;1.90;99.90;;;;;;4968823;28;20289;-72
2022/11/19 11:52:17;;;;;;;3.17;2.97;;;1.90;99.90;;;;;;4967997;28;20302;-72
2022/11/19 11:54:57;;;;;;;3.40;3.10;;;2.10;99.90;;;;;;4968291;28;20640;-72
2022/11/19 11:57:26;;;;;;;3.70;3.40;;;2.10;99.90;;;;;;4968157;28;21132;-72
2022/11/19 11:59:53;;;;;;;3.43;3.13;;;2.10;99.90;;;;;;4967906;28;20514;-71
2022/11/19 12:02:25;;;;;;;3.63;3.33;;;2.20;99.90;;;;;;4968302;28;20222;-72
2022/11/19 12:04:55;;;;;;;3.77;3.47;;;2.20;99.90;;;;;;4967562;28;20715;-72
2022/11/19 12:07:47;;;;;;;3.40;3.03;;;2.30;99.90;;;;;;4968265;28;20282;-72
2022/11/19 12:10:26;;;;;;;5.03;3.50;;;2.40;99.90;;;;;;4967871;28;20319;-72
2022/11/19 12:13:29;;;;;;;3.83;3.27;;;2.30;99.90;;;;;;4967731;28;20644;-71
2022/11/19 12:16:06;;;;;;;3.67;3.40;;;2.40;99.90;;;;;;4967513;28;20201;-71
2022/11/19 12:18:42;;;;;;;3.67;3.37;;;2.40;99.90;;;;;;4968043;28;20252;-71
2022/11/19 12:21:18;;;;;;;3.83;3.53;;;2.40;99.90;;;;;;4967493;28;20240;-69
2022/11/19 12:24:03;;;;;;;3.53;3.23;;;2.50;99.90;;;;;;4969104;28;20285;-69
2022/11/19 12:26:38;;;;;;;3.87;3.57;;;2.60;99.90;;;;;;4971266;28;20301;-69
2022/11/19 12:29:19;;;;;;;3.97;3.67;;;2.70;99.90;;;;;;4970827;28;20294;-69
2022/11/19 12:32:20;;;;;;;3.57;3.27;;;2.70;99.90;;;;;;4970975;28;20211;-69
2022/11/19 12:35:10;;;;;;;4.00;3.63;;;2.70;99.90;;;;;;4971325;28;20199;-71
2022/11/19 12:37:58;;;;;;;4.23;3.93;;;2.60;99.90;;;;;;4971349;28;20318;-71
2022/11/19 12:40:35;;;;;;;4.60;4.10;;;2.50;99.90;;;;;;4971289;28;20321;-72
2022/11/19 12:43:09;;;;;;;4.50;4.00;;;2.50;99.90;;;;;;4971216;28;20528;-69
2022/11/19 12:45:43;;;;;;;4.30;3.50;;;2.50;99.90;;;;;;4970678;28;20241;-71
2022/11/19 12:48:30;;;;;;;3.73;3.43;;;2.30;99.90;;;;;;4970867;28;20298;-72
2022/11/19 12:51:03;;;;;;;4.00;3.70;;;2.40;99.90;;;;;;4970952;28;20553;-71
2022/11/19 12:53:57;;;;;;;3.60;3.40;;;2.40;99.90;;;;;;4951552;29;20199;-69
2022/11/19 12:56:36;;;;;;;3.80;3.50;;;2.40;99.90;;;;;;4951370;28;20909;-69
2022/11/19 12:59:19;;;;;;;4.40;4.00;;;2.30;99.90;;;;;;4950880;28;20333;-69
2022/11/19 13:01:51;;;;;;;3.43;3.13;;;2.20;99.90;;;;;;4967293;28;20330;-71
2022/11/19 13:04:26;;;;;;;3.90;3.50;;;2.20;99.90;;;;;;4970577;28;20226;-71
2022/11/19 13:06:57;;;;;;;3.60;3.37;;;2.10;99.90;;;;;;4970988;28;20289;-71
2022/11/19 13:09:33;;;;;;;3.67;3.37;;;2.10;99.90;;;;;;4970514;28;20313;-72
2022/11/19 13:12:04;;;;;;;4.23;3.70;;;1.90;99.90;;;;;;4970161;28;20190;-71
2022/11/19 13:14:38;;;;;;;5.10;4.00;;;1.90;99.90;;;;;;4970155;28;20206;-71
2022/11/19 13:17:09;;;;;;;4.40;4.00;;;1.80;99.90;;;;;;4970239;28;20218;-72
2022/11/19 13:19:39;;;;;;;4.23;3.83;;;1.80;99.90;;;;;;4970503;28;20806;-72